Raymond, Ohio
Current Conditions -  °F | °C
As of 8:14 AM on Friday 28 Nov 2014 (Local Time) from KMRT Reporting Station
Broken Clouds Broken Clouds  
Wind Chill: -10°   Ceiling: 3000
Heat Index: -6°   Visibility: 10mi
Dew Point: -8°   Wind: 7mph
Humidity: 82%   Direction: 270°W
Pressure: 30.37"   Gusts: NA
Location:  40.33°N, 83.47°W
Report Text: KMRT 281314Z AUTO 27006KT 10SM BKN030 M05/M08 A3037 RMK AO2 T10551081
Loading
Personal Weather Stations






























Interactive Weather Map New forecast layout! Learn more

10-Day Weather Forecast

Advertisements
Track Severe Weather on mobile